createdAt,value
2018-12-23T14:09:02.172Z,3.34
2018-12-23T14:13:57.249Z,1.82
2018-12-23T14:21:14.877Z,2.88
2018-12-23T14:26:09.838Z,3.88
2018-12-23T14:31:16.180Z,4.56
2018-12-23T14:36:22.203Z,4.86
2018-12-23T14:41:27.475Z,6.49
2018-12-23T14:46:33.702Z,7.00
2018-12-23T14:51:39.707Z,5.77
2018-12-23T14:56:45.766Z,6.67
2018-12-23T15:01:50.771Z,5.78
2018-12-23T15:12:04.838Z,8.24
2018-12-23T15:17:11.016Z,7.95
2018-12-23T15:22:16.050Z,8.59
2018-12-23T15:27:22.056Z,8.61
2018-12-23T15:32:27.102Z,10.10
2018-12-23T15:37:33.149Z,8.56
2018-12-23T15:42:38.325Z,7.97
2018-12-23T15:47:43.513Z,9.53
2018-12-23T15:52:49.879Z,10.88
2018-12-23T15:57:54.866Z,11.14
2018-12-23T16:03:00.856Z,12.50
2018-12-23T16:08:06.909Z,10.31
2018-12-23T16:13:12.110Z,11.29
2018-12-23T16:18:17.066Z,12.39
2018-12-23T16:23:23.125Z,10.66
2018-12-23T16:28:29.170Z,12.53
2018-12-23T16:33:34.376Z,12.27
2018-12-23T16:38:39.457Z,16.17
2018-12-23T16:43:44.587Z,15.47
2018-12-23T16:48:50.363Z,12.88
2018-12-23T16:53:56.418Z,12.72
2018-12-23T16:59:02.352Z,14.90
2018-12-23T17:09:17.084Z,20.42
2018-12-23T17:14:22.215Z,24.08
2018-12-23T17:24:35.907Z,26.41
2018-12-23T17:29:42.018Z,25.23
2018-12-23T17:34:47.004Z,26.11
2018-12-23T17:39:52.920Z,25.87
2018-12-23T17:44:58.861Z,29.74
2018-12-23T17:50:04.862Z,27.74
2018-12-23T17:55:11.089Z,27.71
2018-12-23T18:00:16.048Z,28.65
2018-12-23T18:05:22.127Z,29.10
2018-12-23T18:10:27.134Z,25.52
2018-12-23T18:15:33.228Z,26.90
2018-12-23T18:20:39.032Z,29.89
2018-12-23T18:25:45.203Z,28.21
2018-12-23T18:30:50.304Z,30.09
2018-12-23T18:35:56.223Z,28.21
2018-12-23T18:41:02.272Z,26.70
2018-12-23T18:46:07.499Z,26.78
2018-12-23T18:51:12.589Z,26.36
2018-12-23T18:56:17.637Z,25.86
2018-12-23T19:01:22.584Z,26.68
2018-12-23T19:06:28.830Z,24.60
2018-12-23T19:16:43.649Z,21.51
2018-12-23T19:21:49.687Z,21.35
2018-12-23T19:26:54.790Z,19.98
2018-12-23T19:37:09.396Z,20.17
2018-12-23T19:42:15.314Z,19.06
2018-12-23T19:47:21.487Z,21.40
2018-12-23T19:52:26.515Z,19.58
2018-12-23T19:57:31.682Z,22.03
2018-12-23T20:02:37.265Z,23.64
2018-12-23T20:07:42.664Z,22.13
2018-12-23T20:12:47.607Z,21.37
2018-12-23T20:17:53.760Z,24.74
2018-12-23T20:22:58.823Z,29.34
2018-12-23T20:28:04.101Z,24.60
2018-12-23T20:33:09.110Z,28.61
2018-12-23T20:38:15.083Z,28.69
2018-12-23T20:43:20.160Z,34.40
2018-12-23T20:48:26.159Z,39.39
2018-12-23T20:53:32.082Z,38.73
2018-12-23T20:58:38.277Z,43.37
2018-12-23T21:03:43.214Z,37.76
2018-12-23T21:13:49.676Z,50.76
2018-12-23T21:24:04.311Z,43.56
2018-12-23T21:29:10.329Z,44.19
2018-12-23T21:39:25.057Z,40.03
2018-12-23T21:44:30.002Z,32.26
2018-12-23T21:49:36.108Z,39.36
2018-12-23T21:59:49.970Z,35.42
2018-12-23T22:04:55.941Z,38.95
2018-12-23T22:10:01.107Z,38.02
2018-12-23T22:15:07.160Z,37.37
2018-12-23T22:20:12.381Z,49.35
2018-12-23T22:30:26.207Z,45.36
2018-12-23T22:35:31.361Z,47.22
2018-12-23T22:40:36.384Z,38.58
2018-12-23T22:45:42.629Z,30.97
2018-12-23T22:50:47.686Z,35.19
2018-12-23T22:55:53.578Z,30.59
2018-12-23T23:00:59.658Z,29.26
2018-12-23T23:06:04.723Z,26.09
2018-12-23T23:11:09.796Z,28.78
2018-12-23T23:16:15.725Z,31.99
2018-12-23T23:21:21.839Z,34.05
2018-12-23T23:26:26.792Z,32.77
2018-12-23T23:31:32.925Z,34.77
2018-12-23T23:36:38.040Z,33.32
2018-12-23T23:52:00.468Z,32.75
2018-12-23T23:57:05.406Z,30.38
